sensor_id;sensor_type;location;lat;lon;timestamp;temperature;humidity
20610;DHT22;10463;52.378;9.688;2023-04-07T00:00:49;24.30;20.70
20610;DHT22;10463;52.378;9.688;2023-04-07T00:03:33;24.30;20.70
20610;DHT22;10463;52.378;9.688;2023-04-07T00:06:20;24.30;20.70
20610;DHT22;10463;52.378;9.688;2023-04-07T00:09:05;24.30;20.70
20610;DHT22;10463;52.378;9.688;2023-04-07T00:11:50;24.30;20.70
20610;DHT22;10463;52.378;9.688;2023-04-07T00:14:35;24.30;20.70
20610;DHT22;10463;52.378;9.688;2023-04-07T00:17:19;24.30;20.70
20610;DHT22;10463;52.378;9.688;2023-04-07T00:20:06;24.30;20.70
20610;DHT22;10463;52.378;9.688;2023-04-07T00:22:52;24.30;20.70
20610;DHT22;10463;52.378;9.688;2023-04-07T00:25:37;24.30;20.80
20610;DHT22;10463;52.378;9.688;2023-04-07T00:28:21;24.30;20.70
20610;DHT22;10463;52.378;9.688;2023-04-07T00:31:06;24.30;20.70
20610;DHT22;10463;52.378;9.688;2023-04-07T00:33:51;24.20;20.70
20610;DHT22;10463;52.378;9.688;2023-04-07T00:39:24;24.30;20.80
20610;DHT22;10463;52.378;9.688;2023-04-07T00:42:11;24.20;20.70
20610;DHT22;10463;52.378;9.688;2023-04-07T00:44:56;24.20;20.70
20610;DHT22;10463;52.378;9.688;2023-04-07T00:47:40;24.20;20.70
20610;DHT22;10463;52.378;9.688;2023-04-07T00:50:25;24.20;20.70
20610;DHT22;10463;52.378;9.688;2023-04-07T00:53:11;24.20;20.70
20610;DHT22;10463;52.378;9.688;2023-04-07T00:55:57;24.20;20.70
20610;DHT22;10463;52.378;9.688;2023-04-07T00:58:42;24.20;20.70
20610;DHT22;10463;52.378;9.688;2023-04-07T01:01:31;24.20;20.70
20610;DHT22;10463;52.378;9.688;2023-04-07T01:04:25;24.20;20.70
20610;DHT22;10463;52.378;9.688;2023-04-07T01:07:23;24.20;20.70
20610;DHT22;10463;52.378;9.688;2023-04-07T01:10:27;24.20;21.20
20610;DHT22;10463;52.378;9.688;2023-04-07T01:13:29;24.20;20.70
20610;DHT22;10463;52.378;9.688;2023-04-07T01:16:30;24.20;20.70
20610;DHT22;10463;52.378;9.688;2023-04-07T01:19:32;24.10;20.60
20610;DHT22;10463;52.378;9.688;2023-04-07T01:22:22;24.20;20.70
20610;DHT22;10463;52.378;9.688;2023-04-07T01:25:34;24.10;20.60
20610;DHT22;10463;52.378;9.688;2023-04-07T01:31:33;24.10;20.60
20610;DHT22;10463;52.378;9.688;2023-04-07T01:34:21;24.10;20.60
20610;DHT22;10463;52.378;9.688;2023-04-07T01:37:07;24.10;20.60
20610;DHT22;10463;52.378;9.688;2023-04-07T01:39:53;24.10;20.60
20610;DHT22;10463;52.378;9.688;2023-04-07T01:42:41;24.10;20.60
20610;DHT22;10463;52.378;9.688;2023-04-07T01:45:26;24.10;20.60
20610;DHT22;10463;52.378;9.688;2023-04-07T01:48:14;24.10;20.60
20610;DHT22;10463;52.378;9.688;2023-04-07T01:51:00;24.10;20.60
20610;DHT22;10463;52.378;9.688;2023-04-07T01:53:46;24.00;20.60
20610;DHT22;10463;52.378;9.688;2023-04-07T01:56:31;24.10;20.60
20610;DHT22;10463;52.378;9.688;2023-04-07T01:59:17;24.00;20.60
20610;DHT22;10463;52.378;9.688;2023-04-07T02:02:03;24.10;20.60
20610;DHT22;10463;52.378;9.688;2023-04-07T02:04:54;24.00;20.50
20610;DHT22;10463;52.378;9.688;2023-04-07T02:07:45;24.00;20.50
20610;DHT22;10463;52.378;9.688;2023-04-07T02:10:36;24.00;20.60
20610;DHT22;10463;52.378;9.688;2023-04-07T02:13:22;24.00;20.50
20610;DHT22;10463;52.378;9.688;2023-04-07T02:16:09;24.00;20.60
20610;DHT22;10463;52.378;9.688;2023-04-07T02:18:56;24.00;20.60
20610;DHT22;10463;52.378;9.688;2023-04-07T02:21:43;24.00;20.50
20610;DHT22;10463;52.378;9.688;2023-04-07T02:24:29;24.00;20.60
20610;DHT22;10463;52.378;9.688;2023-04-07T02:27:14;24.00;20.50
20610;DHT22;10463;52.378;9.688;2023-04-07T02:29:58;24.00;20.60
20610;DHT22;10463;52.378;9.688;2023-04-07T02:32:43;24.00;20.60
20610;DHT22;10463;52.378;9.688;2023-04-07T02:35:27;24.00;20.50
20610;DHT22;10463;52.378;9.688;2023-04-07T02:38:13;23.90;20.50
20610;DHT22;10463;52.378;9.688;2023-04-07T02:40:58;24.00;20.60
20610;DHT22;10463;52.378;9.688;2023-04-07T02:43:42;24.00;20.50
20610;DHT22;10463;52.378;9.688;2023-04-07T02:46:27;23.90;20.50
20610;DHT22;10463;52.378;9.688;2023-04-07T02:49:12;23.90;20.50
20610;DHT22;10463;52.378;9.688;2023-04-07T02:51:56;23.90;20.50
20610;DHT22;10463;52.378;9.688;2023-04-07T02:54:42;23.90;20.50
20610;DHT22;10463;52.378;9.688;2023-04-07T02:57:29;23.90;20.50
20610;DHT22;10463;52.378;9.688;2023-04-07T03:00:17;23.90;20.50
20610;DHT22;10463;52.378;9.688;2023-04-07T03:03:12;23.90;20.50
20610;DHT22;10463;52.378;9.688;2023-04-07T03:06:00;23.90;20.50
20610;DHT22;10463;52.378;9.688;2023-04-07T03:08:45;23.90;20.50
20610;DHT22;10463;52.378;9.688;2023-04-07T03:11:32;23.90;20.50
20610;DHT22;10463;52.378;9.688;2023-04-07T03:14:18;23.80;20.40
20610;DHT22;10463;52.378;9.688;2023-04-07T03:17:05;23.80;20.90
20610;DHT22;10463;52.378;9.688;2023-04-07T03:19:50;23.90;20.50
20610;DHT22;10463;52.378;9.688;2023-04-07T03:22:37;23.90;20.50
20610;DHT22;10463;52.378;9.688;2023-04-07T03:25:25;23.80;20.40
20610;DHT22;10463;52.378;9.688;2023-04-07T03:28:13;23.80;20.40
20610;DHT22;10463;52.378;9.688;2023-04-07T03:30:58;23.80;20.40
20610;DHT22;10463;52.378;9.688;2023-04-07T03:33:43;23.80;20.40
20610;DHT22;10463;52.378;9.688;2023-04-07T03:36:31;23.80;20.50
20610;DHT22;10463;52.378;9.688;2023-04-07T03:39:19;23.80;20.40
20610;DHT22;10463;52.378;9.688;2023-04-07T03:42:04;23.80;20.40
20610;DHT22;10463;52.378;9.688;2023-04-07T03:44:52;23.80;20.40
20610;DHT22;10463;52.378;9.688;2023-04-07T03:47:37;23.80;20.40
20610;DHT22;10463;52.378;9.688;2023-04-07T03:50:23;23.80;20.50
20610;DHT22;10463;52.378;9.688;2023-04-07T03:53:17;23.80;20.40
20610;DHT22;10463;52.378;9.688;2023-04-07T03:56:04;23.80;20.40
20610;DHT22;10463;52.378;9.688;2023-04-07T03:59:00;23.70;20.40
20610;DHT22;10463;52.378;9.688;2023-04-07T04:01:51;23.80;20.40
20610;DHT22;10463;52.378;9.688;2023-04-07T04:04:35;23.70;20.40
20610;DHT22;10463;52.378;9.688;2023-04-07T04:07:21;23.70;20.40
20610;DHT22;10463;52.378;9.688;2023-04-07T04:10:09;23.70;20.40
20610;DHT22;10463;52.378;9.688;2023-04-07T04:12:58;23.70;20.40
20610;DHT22;10463;52.378;9.688;2023-04-07T04:15:47;23.70;20.40
20610;DHT22;10463;52.378;9.688;2023-04-07T04:18:35;23.70;20.40
20610;DHT22;10463;52.378;9.688;2023-04-07T04:21:21;23.70;20.40
20610;DHT22;10463;52.378;9.688;2023-04-07T04:24:06;23.70;20.40
20610;DHT22;10463;52.378;9.688;2023-04-07T04:26:51;23.70;20.40
20610;DHT22;10463;52.378;9.688;2023-04-07T04:29:35;23.70;20.40
20610;DHT22;10463;52.378;9.688;2023-04-07T04:32:23;23.70;20.40
20610;DHT22;10463;52.378;9.688;2023-04-07T04:35:09;23.70;20.40
20610;DHT22;10463;52.378;9.688;2023-04-07T04:38:03;23.60;20.30
20610;DHT22;10463;52.378;9.688;2023-04-07T04:40:48;23.60;20.30
20610;DHT22;10463;52.378;9.688;2023-04-07T04:43:36;23.60;20.30
20610;DHT22;10463;52.378;9.688;2023-04-07T04:46:23;23.60;20.30
20610;DHT22;10463;52.378;9.688;2023-04-07T04:49:09;23.60;20.30
20610;DHT22;10463;52.378;9.688;2023-04-07T04:51:55;23.60;20.30
20610;DHT22;10463;52.378;9.688;2023-04-07T04:54:41;23.60;20.40
20610;DHT22;10463;52.378;9.688;2023-04-07T04:57:27;23.60;20.30
20610;DHT22;10463;52.378;9.688;2023-04-07T05:00:13;23.60;20.30
20610;DHT22;10463;52.378;9.688;2023-04-07T05:03:00;23.60;20.30
20610;DHT22;10463;52.378;9.688;2023-04-07T05:05:49;23.60;20.30
20610;DHT22;10463;52.378;9.688;2023-04-07T05:08:38;23.60;20.40
20610;DHT22;10463;52.378;9.688;2023-04-07T05:11:23;23.60;20.30
20610;DHT22;10463;52.378;9.688;2023-04-07T05:14:10;23.60;20.40
20610;DHT22;10463;52.378;9.688;2023-04-07T05:17:00;23.60;20.30
20610;DHT22;10463;52.378;9.688;2023-04-07T05:19:46;23.50;20.30
20610;DHT22;10463;52.378;9.688;2023-04-07T05:22:41;23.60;20.30
20610;DHT22;10463;52.378;9.688;2023-04-07T05:25:31;23.60;20.40
20610;DHT22;10463;52.378;9.688;2023-04-07T05:28:19;23.50;20.30
20610;DHT22;10463;52.378;9.688;2023-04-07T05:31:04;23.50;20.30
20610;DHT22;10463;52.378;9.688;2023-04-07T05:33:50;23.50;20.30
20610;DHT22;10463;52.378;9.688;2023-04-07T05:36:35;23.50;20.30
20610;DHT22;10463;52.378;9.688;2023-04-07T05:39:20;23.50;20.30
20610;DHT22;10463;52.378;9.688;2023-04-07T05:42:09;23.50;20.80
20610;DHT22;10463;52.378;9.688;2023-04-07T05:44:56;23.50;20.30
20610;DHT22;10463;52.378;9.688;2023-04-07T05:47:42;23.50;20.30
20610;DHT22;10463;52.378;9.688;2023-04-07T05:50:28;23.50;20.30
20610;DHT22;10463;52.378;9.688;2023-04-07T05:53:15;23.50;20.30
20610;DHT22;10463;52.378;9.688;2023-04-07T05:56:00;23.50;20.30
20610;DHT22;10463;52.378;9.688;2023-04-07T05:59:13;23.50;20.30
20610;DHT22;10463;52.378;9.688;2023-04-07T06:01:57;23.50;20.30
20610;DHT22;10463;52.378;9.688;2023-04-07T06:04:43;23.50;20.30
20610;DHT22;10463;52.378;9.688;2023-04-07T06:07:32;23.50;20.30
20610;DHT22;10463;52.378;9.688;2023-04-07T06:10:17;23.40;20.20
20610;DHT22;10463;52.378;9.688;2023-04-07T06:13:03;23.40;20.20
20610;DHT22;10463;52.378;9.688;2023-04-07T06:15:49;23.40;20.20
20610;DHT22;10463;52.378;9.688;2023-04-07T06:18:34;23.40;20.20
20610;DHT22;10463;52.378;9.688;2023-04-07T06:21:18;23.40;20.20
20610;DHT22;10463;52.378;9.688;2023-04-07T06:24:03;23.40;20.20
20610;DHT22;10463;52.378;9.688;2023-04-07T06:26:49;23.40;20.20
20610;DHT22;10463;52.378;9.688;2023-04-07T06:29:34;23.40;20.20
20610;DHT22;10463;52.378;9.688;2023-04-07T06:32:24;23.40;20.20
20610;DHT22;10463;52.378;9.688;2023-04-07T06:35:09;23.40;20.20
20610;DHT22;10463;52.378;9.688;2023-04-07T06:37:54;23.40;20.20
20610;DHT22;10463;52.378;9.688;2023-04-07T06:40:39;23.40;20.20
20610;DHT22;10463;52.378;9.688;2023-04-07T06:43:24;23.40;20.20
20610;DHT22;10463;52.378;9.688;2023-04-07T06:46:17;23.40;20.20
20610;DHT22;10463;52.378;9.688;2023-04-07T06:49:03;23.40;20.30
20610;DHT22;10463;52.378;9.688;2023-04-07T06:51:48;23.40;20.20
20610;DHT22;10463;52.378;9.688;2023-04-07T06:54:34;23.30;20.20
20610;DHT22;10463;52.378;9.688;2023-04-07T06:57:18;23.40;20.20
20610;DHT22;10463;52.378;9.688;2023-04-07T07:00:04;23.40;20.30
20610;DHT22;10463;52.378;9.688;2023-04-07T07:02:51;23.30;20.20
20610;DHT22;10463;52.378;9.688;2023-04-07T07:05:37;23.30;20.20
20610;DHT22;10463;52.378;9.688;2023-04-07T07:08:22;23.30;20.20
20610;DHT22;10463;52.378;9.688;2023-04-07T07:11:07;23.30;20.20
20610;DHT22;10463;52.378;9.688;2023-04-07T07:13:51;23.30;20.20
20610;DHT22;10463;52.378;9.688;2023-04-07T07:16:36;23.30;20.20
20610;DHT22;10463;52.378;9.688;2023-04-07T07:19:20;23.30;20.20
20610;DHT22;10463;52.378;9.688;2023-04-07T07:22:06;23.30;20.20
20610;DHT22;10463;52.378;9.688;2023-04-07T07:24:51;23.30;20.20
20610;DHT22;10463;52.378;9.688;2023-04-07T07:27:35;23.30;20.20
20610;DHT22;10463;52.378;9.688;2023-04-07T07:30:22;23.30;20.30
20610;DHT22;10463;52.378;9.688;2023-04-07T07:33:07;23.30;20.30
20610;DHT22;10463;52.378;9.688;2023-04-07T07:35:52;23.30;20.30
20610;DHT22;10463;52.378;9.688;2023-04-07T07:38:39;23.30;20.30
20610;DHT22;10463;52.378;9.688;2023-04-07T07:41:24;23.30;20.30
20610;DHT22;10463;52.378;9.688;2023-04-07T07:44:09;23.30;20.30
20610;DHT22;10463;52.378;9.688;2023-04-07T07:46:58;23.30;20.30
20610;DHT22;10463;52.378;9.688;2023-04-07T07:49:42;23.30;20.30
20610;DHT22;10463;52.378;9.688;2023-04-07T07:52:27;23.30;20.30
20610;DHT22;10463;52.378;9.688;2023-04-07T07:55:13;23.30;20.30
20610;DHT22;10463;52.378;9.688;2023-04-07T07:57:58;23.30;20.30
20610;DHT22;10463;52.378;9.688;2023-04-07T08:00:43;23.30;20.30
20610;DHT22;10463;52.378;9.688;2023-04-07T08:03:27;23.30;20.30
20610;DHT22;10463;52.378;9.688;2023-04-07T08:06:12;23.30;20.40
20610;DHT22;10463;52.378;9.688;2023-04-07T08:08:57;23.30;20.40
20610;DHT22;10463;52.378;9.688;2023-04-07T08:11:43;23.30;20.30
20610;DHT22;10463;52.378;9.688;2023-04-07T08:14:29;23.30;20.30
20610;DHT22;10463;52.378;9.688;2023-04-07T08:17:16;23.30;20.30
20610;DHT22;10463;52.378;9.688;2023-04-07T08:20:01;23.30;20.30
20610;DHT22;10463;52.378;9.688;2023-04-07T08:22:47;23.30;20.40
20610;DHT22;10463;52.378;9.688;2023-04-07T08:25:32;23.30;20.30
20610;DHT22;10463;52.378;9.688;2023-04-07T08:28:17;23.30;20.40
20610;DHT22;10463;52.378;9.688;2023-04-07T08:31:02;23.30;20.40
20610;DHT22;10463;52.378;9.688;2023-04-07T08:33:47;23.30;20.40
20610;DHT22;10463;52.378;9.688;2023-04-07T08:36:31;23.30;20.40
20610;DHT22;10463;52.378;9.688;2023-04-07T08:39:16;23.30;20.90
20610;DHT22;10463;52.378;9.688;2023-04-07T08:42:01;23.30;20.30
20610;DHT22;10463;52.378;9.688;2023-04-07T08:44:49;23.30;20.40
20610;DHT22;10463;52.378;9.688;2023-04-07T08:47:36;23.30;20.40
20610;DHT22;10463;52.378;9.688;2023-04-07T08:50:21;23.30;20.40
20610;DHT22;10463;52.378;9.688;2023-04-07T08:53:10;23.30;20.40
20610;DHT22;10463;52.378;9.688;2023-04-07T08:55:57;23.30;20.40
20610;DHT22;10463;52.378;9.688;2023-04-07T08:58:43;23.30;20.40
20610;DHT22;10463;52.378;9.688;2023-04-07T09:01:29;23.30;20.40
20610;DHT22;10463;52.378;9.688;2023-04-07T09:04:15;23.30;20.40
20610;DHT22;10463;52.378;9.688;2023-04-07T09:07:00;23.30;20.40
20610;DHT22;10463;52.378;9.688;2023-04-07T09:09:45;23.30;20.40
20610;DHT22;10463;52.378;9.688;2023-04-07T09:12:31;23.30;20.30
20610;DHT22;10463;52.378;9.688;2023-04-07T09:15:16;23.30;20.40
20610;DHT22;10463;52.378;9.688;2023-04-07T09:18:03;23.30;20.30
20610;DHT22;10463;52.378;9.688;2023-04-07T09:20:56;23.30;20.30
20610;DHT22;10463;52.378;9.688;2023-04-07T09:23:41;23.30;20.30
20610;DHT22;10463;52.378;9.688;2023-04-07T09:26:27;23.40;20.40
20610;DHT22;10463;52.378;9.688;2023-04-07T09:29:19;23.40;20.40
20610;DHT22;10463;52.378;9.688;2023-04-07T09:32:04;23.40;20.40
20610;DHT22;10463;52.378;9.688;2023-04-07T09:34:57;23.40;20.40
20610;DHT22;10463;52.378;9.688;2023-04-07T09:37:42;23.40;20.40
20610;DHT22;10463;52.378;9.688;2023-04-07T09:40:28;23.40;20.40
20610;DHT22;10463;52.378;9.688;2023-04-07T09:43:15;23.40;20.50
20610;DHT22;10463;52.378;9.688;2023-04-07T09:46:10;23.40;20.40
20610;DHT22;10463;52.378;9.688;2023-04-07T09:49:02;23.40;20.50
20610;DHT22;10463;52.378;9.688;2023-04-07T09:51:56;23.40;20.40
20610;DHT22;10463;52.378;9.688;2023-04-07T09:54:41;23.40;20.50
20610;DHT22;10463;52.378;9.688;2023-04-07T09:57:26;23.40;20.40
20610;DHT22;10463;52.378;9.688;2023-04-07T10:00:12;23.50;20.50
20610;DHT22;10463;52.378;9.688;2023-04-07T10:03:00;23.40;20.50
20610;DHT22;10463;52.378;9.688;2023-04-07T10:05:45;23.50;20.50
20610;DHT22;10463;52.378;9.688;2023-04-07T10:08:34;23.50;20.50
20610;DHT22;10463;52.378;9.688;2023-04-07T10:11:20;23.50;20.50
20610;DHT22;10463;52.378;9.688;2023-04-07T10:14:05;23.50;20.50
20610;DHT22;10463;52.378;9.688;2023-04-07T10:16:49;23.50;20.50
20610;DHT22;10463;52.378;9.688;2023-04-07T10:19:35;23.50;20.50
20610;DHT22;10463;52.378;9.688;2023-04-07T10:22:20;23.60;20.60
20610;DHT22;10463;52.378;9.688;2023-04-07T10:25:09;23.60;20.60
20610;DHT22;10463;52.378;9.688;2023-04-07T10:27:59;23.60;20.60
20610;DHT22;10463;52.378;9.688;2023-04-07T10:30:44;23.60;20.60
20610;DHT22;10463;52.378;9.688;2023-04-07T10:33:47;23.60;20.60
20610;DHT22;10463;52.378;9.688;2023-04-07T10:36:32;23.60;20.60
20610;DHT22;10463;52.378;9.688;2023-04-07T10:39:19;23.60;20.70
20610;DHT22;10463;52.378;9.688;2023-04-07T10:42:06;23.60;20.60
20610;DHT22;10463;52.378;9.688;2023-04-07T10:44:50;23.70;21.20
20610;DHT22;10463;52.378;9.688;2023-04-07T10:48:10;23.70;20.70
20610;DHT22;10463;52.378;9.688;2023-04-07T10:51:13;23.70;20.70
20610;DHT22;10463;52.378;9.688;2023-04-07T10:54:18;23.70;20.70
20610;DHT22;10463;52.378;9.688;2023-04-07T10:57:12;23.80;20.80
20610;DHT22;10463;52.378;9.688;2023-04-07T11:00:17;23.80;20.80
20610;DHT22;10463;52.378;9.688;2023-04-07T11:03:11;23.80;20.80
20610;DHT22;10463;52.378;9.688;2023-04-07T11:06:03;23.80;20.80
20610;DHT22;10463;52.378;9.688;2023-04-07T11:08:48;23.80;20.80
20610;DHT22;10463;52.378;9.688;2023-04-07T11:11:39;23.80;20.80
20610;DHT22;10463;52.378;9.688;2023-04-07T11:14:25;23.80;20.80
20610;DHT22;10463;52.378;9.688;2023-04-07T11:17:14;23.90;20.80
20610;DHT22;10463;52.378;9.688;2023-04-07T11:20:02;23.90;20.80
20610;DHT22;10463;52.378;9.688;2023-04-07T11:22:58;23.90;20.80
20610;DHT22;10463;52.378;9.688;2023-04-07T11:25:45;23.90;20.80
20610;DHT22;10463;52.378;9.688;2023-04-07T11:31:46;24.00;20.90
20610;DHT22;10463;52.378;9.688;2023-04-07T11:34:33;24.00;20.90
20610;DHT22;10463;52.378;9.688;2023-04-07T11:37:21;24.00;20.80
20610;DHT22;10463;52.378;9.688;2023-04-07T11:40:08;24.10;20.90
20610;DHT22;10463;52.378;9.688;2023-04-07T11:42:53;24.10;20.90
20610;DHT22;10463;52.378;9.688;2023-04-07T11:45:37;24.10;20.90
20610;DHT22;10463;52.378;9.688;2023-04-07T11:48:26;24.10;20.90
20610;DHT22;10463;52.378;9.688;2023-04-07T11:51:19;24.10;20.80
20610;DHT22;10463;52.378;9.688;2023-04-07T11:54:05;24.20;20.90
20610;DHT22;10463;52.378;9.688;2023-04-07T11:56:50;24.20;20.90
20610;DHT22;10463;52.378;9.688;2023-04-07T11:59:39;24.20;20.90
20610;DHT22;10463;52.378;9.688;2023-04-07T12:02:31;24.20;20.90
20610;DHT22;10463;52.378;9.688;2023-04-07T12:05:17;24.20;20.90
20610;DHT22;10463;52.378;9.688;2023-04-07T12:08:01;24.30;20.90
20610;DHT22;10463;52.378;9.688;2023-04-07T12:10:47;24.30;20.90
20610;DHT22;10463;52.378;9.688;2023-04-07T12:13:32;24.30;20.90
20610;DHT22;10463;52.378;9.688;2023-04-07T12:16:17;24.30;20.90
20610;DHT22;10463;52.378;9.688;2023-04-07T12:19:02;24.40;21.00
20610;DHT22;10463;52.378;9.688;2023-04-07T12:21:47;24.40;21.00
20610;DHT22;10463;52.378;9.688;2023-04-07T12:24:31;24.40;20.90
20610;DHT22;10463;52.378;9.688;2023-04-07T12:27:17;24.50;21.00
20610;DHT22;10463;52.378;9.688;2023-04-07T12:30:02;24.50;21.00
20610;DHT22;10463;52.378;9.688;2023-04-07T12:32:47;24.50;21.00
20610;DHT22;10463;52.378;9.688;2023-04-07T12:35:32;24.50;20.90
20610;DHT22;10463;52.378;9.688;2023-04-07T12:38:17;24.60;21.00
20610;DHT22;10463;52.378;9.688;2023-04-07T12:41:02;24.60;21.00
20610;DHT22;10463;52.378;9.688;2023-04-07T12:43:48;24.60;21.00
20610;DHT22;10463;52.378;9.688;2023-04-07T12:46:33;24.60;20.90
20610;DHT22;10463;52.378;9.688;2023-04-07T12:49:17;24.70;21.00
20610;DHT22;10463;52.378;9.688;2023-04-07T12:52:03;24.70;21.00
20610;DHT22;10463;52.378;9.688;2023-04-07T12:54:47;24.70;21.00
20610;DHT22;10463;52.378;9.688;2023-04-07T12:57:33;24.70;21.00
20610;DHT22;10463;52.378;9.688;2023-04-07T13:00:19;24.80;21.10
20610;DHT22;10463;52.378;9.688;2023-04-07T13:03:04;24.80;21.00
20610;DHT22;10463;52.378;9.688;2023-04-07T13:05:50;24.80;21.00
20610;DHT22;10463;52.378;9.688;2023-04-07T13:08:37;24.80;21.00
20610;DHT22;10463;52.378;9.688;2023-04-07T13:11:22;24.80;21.00
20610;DHT22;10463;52.378;9.688;2023-04-07T13:14:07;24.90;21.10
20610;DHT22;10463;52.378;9.688;2023-04-07T13:16:53;24.90;21.00
20610;DHT22;10463;52.378;9.688;2023-04-07T13:19:38;24.90;21.00
20610;DHT22;10463;52.378;9.688;2023-04-07T13:22:24;25.00;21.10
20610;DHT22;10463;52.378;9.688;2023-04-07T13:25:08;25.00;21.10
20610;DHT22;10463;52.378;9.688;2023-04-07T13:27:53;25.00;21.10
20610;DHT22;10463;52.378;9.688;2023-04-07T13:30:38;25.10;21.10
20610;DHT22;10463;52.378;9.688;2023-04-07T13:33:26;25.10;21.10
20610;DHT22;10463;52.378;9.688;2023-04-07T13:36:10;25.10;21.10
20610;DHT22;10463;52.378;9.688;2023-04-07T13:38:55;25.10;21.10
20610;DHT22;10463;52.378;9.688;2023-04-07T13:41:40;25.10;21.10
20610;DHT22;10463;52.378;9.688;2023-04-07T13:44:25;25.20;21.10
20610;DHT22;10463;52.378;9.688;2023-04-07T13:47:10;25.20;21.10
20610;DHT22;10463;52.378;9.688;2023-04-07T13:49:57;25.20;21.10
20610;DHT22;10463;52.378;9.688;2023-04-07T13:52:41;25.20;21.00
20610;DHT22;10463;52.378;9.688;2023-04-07T13:55:26;25.30;21.10
20610;DHT22;10463;52.378;9.688;2023-04-07T13:58:10;25.30;21.10
20610;DHT22;10463;52.378;9.688;2023-04-07T14:00:55;25.30;21.10
20610;DHT22;10463;52.378;9.688;2023-04-07T14:03:40;25.40;21.20
20610;DHT22;10463;52.378;9.688;2023-04-07T14:06:27;25.40;21.10
20610;DHT22;10463;52.378;9.688;2023-04-07T14:09:12;25.40;21.10
20610;DHT22;10463;52.378;9.688;2023-04-07T14:11:57;25.40;21.10
20610;DHT22;10463;52.378;9.688;2023-04-07T14:14:41;25.40;21.10
20610;DHT22;10463;52.378;9.688;2023-04-07T14:17:26;25.40;21.10
20610;DHT22;10463;52.378;9.688;2023-04-07T14:20:11;25.50;21.10
20610;DHT22;10463;52.378;9.688;2023-04-07T14:22:57;25.50;21.10
20610;DHT22;10463;52.378;9.688;2023-04-07T14:25:42;25.50;21.10
20610;DHT22;10463;52.378;9.688;2023-04-07T14:28:27;25.50;21.10
20610;DHT22;10463;52.378;9.688;2023-04-07T14:31:13;25.60;21.10
20610;DHT22;10463;52.378;9.688;2023-04-07T14:33:58;25.60;21.10
20610;DHT22;10463;52.378;9.688;2023-04-07T14:36:52;25.60;21.00
20610;DHT22;10463;52.378;9.688;2023-04-07T14:39:39;25.70;21.00
20610;DHT22;10463;52.378;9.688;2023-04-07T14:42:24;25.70;20.80
20610;DHT22;10463;52.378;9.688;2023-04-07T14:45:10;25.70;20.80
20610;DHT22;10463;52.378;9.688;2023-04-07T14:47:56;25.80;20.70
20610;DHT22;10463;52.378;9.688;2023-04-07T14:50:41;25.80;20.60
20610;DHT22;10463;52.378;9.688;2023-04-07T14:53:25;25.90;20.50
20610;DHT22;10463;52.378;9.688;2023-04-07T14:56:11;25.90;20.40
20610;DHT22;10463;52.378;9.688;2023-04-07T14:58:56;25.90;20.40
20610;DHT22;10463;52.378;9.688;2023-04-07T15:01:41;26.00;20.40
20610;DHT22;10463;52.378;9.688;2023-04-07T15:04:26;26.00;20.40
20610;DHT22;10463;52.378;9.688;2023-04-07T15:07:10;26.00;20.30
20610;DHT22;10463;52.378;9.688;2023-04-07T15:09:55;26.00;20.30
20610;DHT22;10463;52.378;9.688;2023-04-07T15:12:41;26.10;20.30
20610;DHT22;10463;52.378;9.688;2023-04-07T15:15:26;26.10;20.20
20610;DHT22;10463;52.378;9.688;2023-04-07T15:18:11;26.10;20.10
20610;DHT22;10463;52.378;9.688;2023-04-07T15:20:55;26.20;20.10
20610;DHT22;10463;52.378;9.688;2023-04-07T15:23:40;26.20;20.10
20610;DHT22;10463;52.378;9.688;2023-04-07T15:26:25;26.20;20.00
20610;DHT22;10463;52.378;9.688;2023-04-07T15:29:11;26.20;19.90
20610;DHT22;10463;52.378;9.688;2023-04-07T15:31:56;26.30;19.90
20610;DHT22;10463;52.378;9.688;2023-04-07T15:34:40;26.30;19.80
20610;DHT22;10463;52.378;9.688;2023-04-07T15:37:25;26.30;19.80
20610;DHT22;10463;52.378;9.688;2023-04-07T15:40:11;26.30;19.80
20610;DHT22;10463;52.378;9.688;2023-04-07T15:42:55;26.30;19.90
20610;DHT22;10463;52.378;9.688;2023-04-07T15:45:43;26.40;19.90
20610;DHT22;10463;52.378;9.688;2023-04-07T15:48:27;26.40;19.90
20610;DHT22;10463;52.378;9.688;2023-04-07T15:51:12;26.40;19.90
20610;DHT22;10463;52.378;9.688;2023-04-07T15:53:57;26.40;19.90
20610;DHT22;10463;52.378;9.688;2023-04-07T15:56:43;26.40;19.90
20610;DHT22;10463;52.378;9.688;2023-04-07T15:59:27;26.40;19.90
20610;DHT22;10463;52.378;9.688;2023-04-07T16:02:15;26.40;19.90
20610;DHT22;10463;52.378;9.688;2023-04-07T16:05:00;26.40;20.00
20610;DHT22;10463;52.378;9.688;2023-04-07T16:07:45;26.40;20.00
20610;DHT22;10463;52.378;9.688;2023-04-07T16:10:30;26.40;20.00
20610;DHT22;10463;52.378;9.688;2023-04-07T16:13:14;26.40;20.00
20610;DHT22;10463;52.378;9.688;2023-04-07T16:15:59;26.40;20.00
20610;DHT22;10463;52.378;9.688;2023-04-07T16:18:45;26.40;20.60
20610;DHT22;10463;52.378;9.688;2023-04-07T16:21:31;26.40;20.00
20610;DHT22;10463;52.378;9.688;2023-04-07T16:24:16;26.40;20.00
20610;DHT22;10463;52.378;9.688;2023-04-07T16:27:00;26.40;20.10
20610;DHT22;10463;52.378;9.688;2023-04-07T16:29:46;26.40;20.10
20610;DHT22;10463;52.378;9.688;2023-04-07T16:32:32;26.30;20.00
20610;DHT22;10463;52.378;9.688;2023-04-07T16:35:22;26.30;20.10
20610;DHT22;10463;52.378;9.688;2023-04-07T16:38:08;26.30;20.00
20610;DHT22;10463;52.378;9.688;2023-04-07T16:40:53;26.30;20.00
20610;DHT22;10463;52.378;9.688;2023-04-07T16:43:37;26.30;20.00
20610;DHT22;10463;52.378;9.688;2023-04-07T16:46:27;26.30;20.00
20610;DHT22;10463;52.378;9.688;2023-04-07T16:49:12;26.30;20.00
20610;DHT22;10463;52.378;9.688;2023-04-07T16:51:58;26.30;20.00
20610;DHT22;10463;52.378;9.688;2023-04-07T16:54:42;26.30;20.10
20610;DHT22;10463;52.378;9.688;2023-04-07T16:57:27;26.30;20.10
20610;DHT22;10463;52.378;9.688;2023-04-07T17:00:12;26.30;20.00
20610;DHT22;10463;52.378;9.688;2023-04-07T17:02:57;26.20;20.00
20610;DHT22;10463;52.378;9.688;2023-04-07T17:05:42;26.20;20.10
20610;DHT22;10463;52.378;9.688;2023-04-07T17:08:29;26.30;20.10
20610;DHT22;10463;52.378;9.688;2023-04-07T17:11:13;26.20;20.00
20610;DHT22;10463;52.378;9.688;2023-04-07T17:13:58;26.20;20.00
20610;DHT22;10463;52.378;9.688;2023-04-07T17:16:42;26.20;20.10
20610;DHT22;10463;52.378;9.688;2023-04-07T17:19:27;26.20;20.00
20610;DHT22;10463;52.378;9.688;2023-04-07T17:22:12;26.20;20.50
20610;DHT22;10463;52.378;9.688;2023-04-07T17:24:59;26.20;20.00
20610;DHT22;10463;52.378;9.688;2023-04-07T17:27:44;26.20;20.00
20610;DHT22;10463;52.378;9.688;2023-04-07T17:30:31;26.10;20.00
20610;DHT22;10463;52.378;9.688;2023-04-07T17:33:16;26.10;20.00
20610;DHT22;10463;52.378;9.688;2023-04-07T17:36:01;26.10;19.90
20610;DHT22;10463;52.378;9.688;2023-04-07T17:38:46;26.10;19.90
20610;DHT22;10463;52.378;9.688;2023-04-07T17:41:32;26.10;19.90